Time;durP1;ratioP1;P1;durP2;ratioP2;P2;SDS_P1;SDS_P2;PMS_P1;PMS_P2;Temp;Humidity;BMP_temperature;BMP_pressure;BME280_temperature;BME280_humidity;BME280_pressure;Samples;Min_cycle;Max_cycle;Signal;HPM_P1;HPM_P2
2023/03/22 00:00:44;;;;;;;23.95;16.50;;;11.20;64.70;;;;;;5094235;28;20023;-82
2023/03/22 00:03:10;;;;;;;25.30;17.95;;;11.20;64.70;;;;;;5094061;28;20035;-82
2023/03/22 00:05:36;;;;;;;25.25;17.80;;;11.20;64.70;;;;;;5093398;28;20048;-82
2023/03/22 00:08:05;;;;;;;28.23;20.88;;;11.20;64.70;;;;;;5094119;28;20375;-82
2023/03/22 00:10:32;;;;;;;26.38;18.73;;;11.20;64.90;;;;;;5094182;28;20115;-78
2023/03/22 00:12:58;;;;;;;24.98;17.17;;;11.20;64.80;;;;;;5094449;28;20035;-83
2023/03/22 00:15:25;;;;;;;25.40;17.00;;;11.20;65.30;;;;;;5094061;28;20051;-82
2023/03/22 00:17:51;;;;;;;21.38;15.57;;;11.20;64.80;;;;;;5076668;28;20485;-81
2023/03/22 00:20:18;;;;;;;24.08;15.60;;;11.20;64.80;;;;;;5094051;28;20032;-81
2023/03/22 00:22:45;;;;;;;24.23;15.95;;;11.20;64.80;;;;;;5093324;28;20028;-80
2023/03/22 00:25:11;;;;;;;20.70;15.00;;;11.20;64.80;;;;;;5094046;28;20024;-82
2023/03/22 00:27:37;;;;;;;20.15;14.75;;;11.20;64.80;;;;;;5094071;28;20042;-82
2023/03/22 00:30:04;;;;;;;21.55;14.93;;;11.30;64.80;;;;;;5093715;28;20024;-81
2023/03/22 00:32:33;;;;;;;20.27;14.23;;;11.30;64.80;;;;;;5093967;28;20032;-82
2023/03/22 00:34:58;;;;;;;18.23;14.27;;;11.30;64.80;;;;;;5075341;28;20532;-81
2023/03/22 00:37:26;;;;;;;18.35;13.68;;;11.30;64.80;;;;;;5093941;28;20059;-82
2023/03/22 00:39:52;;;;;;;19.50;13.38;;;11.30;64.80;;;;;;5076072;28;20028;-82
2023/03/22 00:42:17;;;;;;;20.67;15.15;;;11.40;64.80;;;;;;5095456;28;20489;-83
2023/03/22 00:44:43;;;;;;;20.40;14.68;;;11.30;64.80;;;;;;5094028;28;20028;-83
2023/03/22 00:47:09;;;;;;;20.83;15.45;;;11.30;64.80;;;;;;5093490;28;20036;-82
2023/03/22 00:49:36;;;;;;;19.40;15.70;;;11.30;64.70;;;;;;5093496;28;20020;-83
2023/03/22 00:52:02;;;;;;;23.10;16.90;;;11.30;64.80;;;;;;5093859;28;20070;-83
2023/03/22 00:54:27;;;;;;;21.10;15.65;;;11.30;64.80;;;;;;5093598;28;20039;-83
2023/03/22 00:56:53;;;;;;;23.48;15.90;;;11.30;64.80;;;;;;5093504;28;20027;-83
2023/03/22 00:59:19;;;;;;;21.08;15.70;;;11.30;64.80;;;;;;5093153;28;20024;-82
2023/03/22 01:01:44;;;;;;;26.10;17.75;;;11.20;64.80;;;;;;5093583;28;20119;-84
2023/03/22 01:04:16;;;;;;;23.42;17.60;;;11.20;64.90;;;;;;5093644;28;20064;-80
2023/03/22 01:06:42;;;;;;;23.95;17.23;;;11.20;64.80;;;;;;5093020;28;20036;-83
2023/03/22 01:09:13;;;;;;;22.33;16.27;;;11.20;64.90;;;;;;5093441;28;20398;-83
2023/03/22 01:11:41;;;;;;;22.23;15.15;;;11.20;64.90;;;;;;5092731;28;20039;-82
2023/03/22 01:14:08;;;;;;;21.15;15.50;;;11.10;64.90;;;;;;5093620;28;20062;-83
2023/03/22 01:16:35;;;;;;;22.00;16.67;;;11.20;65.00;;;;;;5092949;28;20036;-83
2023/03/22 01:19:01;;;;;;;20.45;15.20;;;11.10;65.00;;;;;;5093380;28;20457;-82
2023/03/22 01:21:26;;;;;;;20.40;14.52;;;11.10;65.00;;;;;;5093065;28;20028;-82
2023/03/22 01:23:52;;;;;;;22.52;16.60;;;11.10;65.00;;;;;;5092876;28;20059;-83
2023/03/22 01:26:18;;;;;;;22.65;16.13;;;11.10;65.10;;;;;;5092850;28;20036;-81
2023/03/22 01:28:43;;;;;;;21.55;14.48;;;11.10;65.20;;;;;;5092350;28;20032;-83
2023/03/22 01:31:09;;;;;;;22.30;14.80;;;11.00;65.10;;;;;;5093590;28;20032;-82
2023/03/22 01:33:35;;;;;;;18.83;14.02;;;11.00;65.10;;;;;;5074599;28;20032;-80
2023/03/22 01:36:01;;;;;;;19.13;14.20;;;11.00;65.10;;;;;;5075005;28;20036;-82
2023/03/22 01:38:26;;;;;;;19.23;13.35;;;11.10;65.20;;;;;;5092385;28;20036;-82
2023/03/22 01:40:52;;;;;;;20.00;14.00;;;11.10;65.20;;;;;;5092238;28;20435;-82
2023/03/22 01:43:18;;;;;;;21.30;15.40;;;11.00;65.20;;;;;;5092982;28;20039;-81
2023/03/22 01:45:47;;;;;;;19.35;14.10;;;11.00;65.20;;;;;;5092867;28;20040;-82
2023/03/22 01:48:27;;;;;;;19.80;14.43;;;11.00;65.30;;;;;;5092114;28;20020;-81
2023/03/22 01:51:01;;;;;;;20.67;14.05;;;11.00;65.40;;;;;;5091866;28;20020;-83
2023/03/22 01:53:29;;;;;;;18.80;14.02;;;11.00;65.30;;;;;;5091779;28;20028;-82
2023/03/22 01:55:57;;;;;;;19.50;13.75;;;10.90;65.40;;;;;;5092009;28;20185;-80
2023/03/22 01:58:23;;;;;;;17.38;12.98;;;10.90;65.50;;;;;;5092153;28;20028;-82
2023/03/22 02:00:50;;;;;;;19.67;14.02;;;10.90;65.50;;;;;;5093762;28;20028;-82
2023/03/22 02:03:24;;;;;;;16.65;12.60;;;11.00;65.60;;;;;;5093740;28;20057;-82
2023/03/22 02:05:50;;;;;;;16.75;12.27;;;10.90;65.60;;;;;;5093051;28;20036;-81
2023/03/22 02:08:16;;;;;;;19.20;13.10;;;11.00;65.80;;;;;;5092660;28;20081;-83
2023/03/22 02:10:42;;;;;;;17.65;13.93;;;10.90;65.60;;;;;;5092488;28;20028;-82
2023/03/22 02:13:14;;;;;;;19.58;14.30;;;11.00;66.00;;;;;;5092471;28;20069;-82
2023/03/22 02:15:47;;;;;;;20.58;14.85;;;10.90;65.90;;;;;;5092450;28;20113;-81
2023/03/22 02:18:35;;;;;;;19.50;14.15;;;10.90;65.90;;;;;;5092435;28;20115;-81
2023/03/22 02:21:32;;;;;;;17.25;12.73;;;10.90;66.40;;;;;;5092852;28;20032;-82
2023/03/22 02:23:57;;;;;;;18.20;13.13;;;10.90;66.50;;;;;;5074476;28;20035;-83
2023/03/22 02:26:42;;;;;;;22.52;17.42;;;10.80;66.10;;;;;;5092302;28;20028;-82
2023/03/22 02:29:29;;;;;;;18.27;13.82;;;10.80;66.30;;;;;;5092866;28;20024;-82
2023/03/22 02:31:55;;;;;;;21.50;15.82;;;10.80;66.90;;;;;;5094754;28;20043;-82
2023/03/22 02:34:41;;;;;;;21.55;15.88;;;10.80;66.50;;;;;;5092756;28;20084;-83
2023/03/22 02:37:26;;;;;;;21.95;15.25;;;10.70;67.00;;;;;;5092116;28;20089;-82
2023/03/22 02:40:21;;;;;;;22.63;15.55;;;10.70;66.80;;;;;;5092096;28;20028;-82
2023/03/22 02:42:59;;;;;;;19.83;15.68;;;10.70;67.20;;;;;;5092219;28;20466;-82
2023/03/22 02:45:43;;;;;;;23.10;17.83;;;10.60;66.90;;;;;;5091966;28;20036;-81
2023/03/22 02:48:27;;;;;;;23.08;17.45;;;10.60;67.10;;;;;;5092423;28;20028;-81
2023/03/22 02:50:57;;;;;;;22.42;16.92;;;10.60;67.30;;;;;;5091491;28;20389;-81
2023/03/22 02:53:28;;;;;;;20.52;15.23;;;10.50;67.20;;;;;;5095957;28;20020;-81
2023/03/22 02:56:01;;;;;;;20.92;15.57;;;10.50;67.20;;;;;;5096038;28;20031;-82
2023/03/22 02:58:38;;;;;;;20.27;14.95;;;10.50;67.20;;;;;;5096152;28;20030;-82
2023/03/22 03:01:10;;;;;;;22.40;16.75;;;10.50;67.40;;;;;;5095691;28;20036;-82
2023/03/22 03:03:38;;;;;;;21.08;15.00;;;10.50;67.30;;;;;;5105661;28;20035;-82
2023/03/22 03:06:11;;;;;;;21.23;16.25;;;10.50;67.40;;;;;;5116100;28;20465;-83
2023/03/22 03:08:38;;;;;;;22.67;16.85;;;10.50;67.80;;;;;;5097730;28;20051;-83
2023/03/22 03:11:04;;;;;;;22.98;16.00;;;10.40;67.80;;;;;;5115961;28;20110;-83
2023/03/22 03:13:30;;;;;;;18.98;14.23;;;10.50;67.90;;;;;;5115949;28;20027;-82
2023/03/22 03:15:58;;;;;;;20.55;14.25;;;10.40;67.90;;;;;;5115973;28;20034;-83
2023/03/22 03:18:43;;;;;;;19.90;14.80;;;10.40;68.00;;;;;;5116101;28;20028;-81
2023/03/22 03:21:37;;;;;;;20.52;14.73;;;10.50;68.20;;;;;;5097696;28;20051;-82
2023/03/22 03:24:14;;;;;;;20.08;13.82;;;10.40;68.40;;;;;;5116154;28;20028;-82
2023/03/22 03:26:53;;;;;;;22.38;16.85;;;10.40;68.70;;;;;;5115198;28;20133;-82
2023/03/22 03:29:29;;;;;;;14.93;12.63;;;10.40;68.40;;;;;;5115687;28;20373;-81
2023/03/22 03:31:59;;;;;;;17.75;13.90;;;10.40;68.20;;;;;;5115507;28;20035;-83
2023/03/22 03:34:34;;;;;;;16.70;12.40;;;10.40;68.20;;;;;;5096999;28;20480;-81
2023/03/22 03:37:21;;;;;;;17.33;12.98;;;10.40;68.30;;;;;;5115472;28;20038;-82
2023/03/22 03:39:57;;;;;;;20.30;14.85;;;10.50;68.60;;;;;;5115084;28;20127;-83
2023/03/22 03:42:26;;;;;;;18.17;14.05;;;10.40;68.40;;;;;;5115183;28;20023;-83
2023/03/22 03:44:51;;;;;;;16.60;12.50;;;10.50;68.40;;;;;;5115549;28;20024;-82
2023/03/22 03:47:18;;;;;;;15.82;13.43;;;10.50;68.40;;;;;;5097286;28;20036;-81
2023/03/22 03:49:43;;;;;;;14.98;12.27;;;10.50;68.40;;;;;;5115221;28;20032;-83
2023/03/22 03:52:09;;;;;;;17.45;14.07;;;10.50;68.40;;;;;;5114622;28;20031;-83
2023/03/22 03:54:35;;;;;;;16.58;13.10;;;10.50;68.50;;;;;;5115265;28;20020;-81
2023/03/22 03:57:01;;;;;;;16.15;12.30;;;10.50;68.50;;;;;;5115787;28;20058;-83
2023/03/22 03:59:27;;;;;;;15.35;11.38;;;10.60;68.50;;;;;;5115217;28;20085;-80
2023/03/22 04:01:52;;;;;;;15.98;11.05;;;10.60;68.50;;;;;;5096682;28;20034;-83
2023/03/22 04:04:26;;;;;;;16.08;12.10;;;10.60;68.50;;;;;;5114181;28;20023;-83
2023/03/22 04:06:56;;;;;;;13.68;11.65;;;10.60;68.40;;;;;;5114877;28;20053;-82
2023/03/22 04:09:27;;;;;;;16.50;12.05;;;10.60;68.50;;;;;;5115129;28;20034;-83
2023/03/22 04:11:54;;;;;;;16.15;12.65;;;10.60;68.40;;;;;;5096327;28;20111;-82
2023/03/22 04:14:20;;;;;;;17.15;13.15;;;10.60;68.50;;;;;;5114823;28;20450;-83
2023/03/22 04:16:46;;;;;;;18.48;13.88;;;10.60;68.50;;;;;;5114476;28;20028;-82
2023/03/22 04:19:12;;;;;;;20.17;15.10;;;10.60;68.50;;;;;;5114694;28;20072;-83
2023/03/22 04:21:39;;;;;;;18.95;14.00;;;10.60;68.70;;;;;;5114536;28;20027;-83
2023/03/22 04:24:05;;;;;;;16.35;12.57;;;10.60;68.60;;;;;;5114674;28;20027;-83
2023/03/22 04:26:31;;;;;;;15.65;12.25;;;10.60;68.60;;;;;;5114465;28;20085;-83
2023/03/22 04:28:57;;;;;;;14.25;11.80;;;10.60;68.70;;;;;;5114334;28;20023;-83
2023/03/22 04:31:26;;;;;;;16.63;12.27;;;10.60;68.70;;;;;;5113806;28;20038;-82
2023/03/22 04:33:53;;;;;;;15.10;11.43;;;10.60;68.80;;;;;;5092824;28;20718;-83
2023/03/22 04:36:23;;;;;;;14.55;11.10;;;10.70;68.70;;;;;;5094502;28;20035;-82
2023/03/22 04:38:50;;;;;;;15.38;11.73;;;10.70;68.70;;;;;;5084334;28;20470;-83
2023/03/22 04:41:16;;;;;;;13.52;10.88;;;10.70;68.70;;;;;;5083017;28;20091;-83
2023/03/22 04:43:45;;;;;;;15.50;11.93;;;10.70;68.60;;;;;;5086108;28;20028;-83
2023/03/22 04:46:11;;;;;;;15.00;11.32;;;10.70;68.60;;;;;;5083961;28;20028;-83
2023/03/22 04:48:39;;;;;;;15.48;12.38;;;10.70;68.70;;;;;;5082837;28;20028;-82
2023/03/22 04:51:06;;;;;;;21.50;14.18;;;10.70;68.70;;;;;;5065590;28;20024;-81
2023/03/22 04:53:37;;;;;;;18.45;12.77;;;10.70;68.80;;;;;;5081847;28;20386;-82
2023/03/22 04:56:08;;;;;;;18.42;14.73;;;10.70;68.80;;;;;;5083063;28;20035;-83
2023/03/22 04:58:35;;;;;;;18.40;14.32;;;10.70;68.70;;;;;;5075882;28;20386;-83
2023/03/22 05:01:02;;;;;;;19.40;14.23;;;10.70;68.70;;;;;;5076782;28;20576;-82
2023/03/22 05:03:27;;;;;;;17.63;14.23;;;10.70;68.70;;;;;;5075274;28;20482;-81
2023/03/22 05:05:56;;;;;;;21.65;15.60;;;10.80;68.90;;;;;;5073383;28;20028;-72
2023/03/22 05:08:26;;;;;;;15.93;12.38;;;10.70;68.90;;;;;;5073450;28;20359;-80
2023/03/22 05:10:53;;;;;;;13.98;11.20;;;10.80;69.40;;;;;;5073444;28;20016;-79
2023/03/22 05:13:20;;;;;;;13.20;10.38;;;10.90;69.50;;;;;;5055025;28;20029;-81
2023/03/22 05:15:47;;;;;;;14.77;10.93;;;10.90;69.30;;;;;;5072005;28;20028;-81
2023/03/22 05:18:14;;;;;;;13.93;11.02;;;11.10;69.20;;;;;;5064920;28;20119;-81
2023/03/22 05:20:41;;;;;;;13.18;10.82;;;11.10;69.10;;;;;;5083570;28;20500;-79
2023/03/22 05:23:08;;;;;;;13.10;11.18;;;11.20;69.00;;;;;;5082194;28;20024;-77
2023/03/22 05:25:35;;;;;;;13.80;11.40;;;11.30;68.90;;;;;;5062632;28;20063;-77
2023/03/22 05:28:02;;;;;;;13.98;11.20;;;11.30;68.80;;;;;;5058399;28;20499;-78
2023/03/22 05:30:28;;;;;;;15.70;11.88;;;11.40;68.70;;;;;;5079280;28;20347;-77
2023/03/22 05:33:02;;;;;;;14.45;11.38;;;11.40;68.60;;;;;;5093347;28;20106;-79
2023/03/22 05:35:32;;;;;;;13.18;10.77;;;11.50;68.50;;;;;;5108770;28;20499;-78
2023/03/22 05:37:58;;;;;;;13.77;11.05;;;11.50;68.40;;;;;;5113496;28;20031;-77
2023/03/22 05:40:24;;;;;;;14.77;11.15;;;11.60;68.40;;;;;;5107800;28;20038;-78
2023/03/22 05:42:51;;;;;;;16.75;12.57;;;11.60;68.30;;;;;;5092016;28;20384;-75
2023/03/22 05:45:18;;;;;;;15.55;12.00;;;11.70;68.20;;;;;;5094508;28;20416;-80
2023/03/22 05:47:44;;;;;;;14.63;11.80;;;11.70;68.10;;;;;;5073716;28;20119;-76
2023/03/22 05:50:12;;;;;;;14.48;11.82;;;11.70;68.10;;;;;;5100046;28;20077;-81
2023/03/22 05:52:38;;;;;;;13.18;11.20;;;11.80;68.00;;;;;;5077107;28;20023;-81
2023/03/22 05:55:05;;;;;;;14.13;10.00;;;11.80;68.20;;;;;;5088248;28;20024;-83
2023/03/22 05:57:31;;;;;;;12.60;10.82;;;11.90;68.30;;;;;;5094641;28;20358;-81
2023/03/22 05:59:57;;;;;;;12.90;10.25;;;12.00;68.20;;;;;;5113298;28;20031;-82
2023/03/22 06:02:23;;;;;;;12.50;10.68;;;12.00;68.00;;;;;;5113564;28;20028;-82
2023/03/22 06:04:50;;;;;;;13.25;10.50;;;12.10;67.90;;;;;;5112719;28;20031;-82
2023/03/22 06:07:17;;;;;;;13.00;10.13;;;12.10;67.80;;;;;;5112629;28;20028;-82
2023/03/22 06:09:43;;;;;;;11.50;10.02;;;12.20;67.70;;;;;;5113143;28;20073;-82
2023/03/22 06:12:09;;;;;;;11.90;9.93;;;12.20;67.60;;;;;;5078618;28;20032;-80
2023/03/22 06:14:35;;;;;;;13.52;10.07;;;12.20;67.60;;;;;;5103172;28;20023;-82
2023/03/22 06:17:01;;;;;;;12.93;10.30;;;12.20;67.50;;;;;;5096757;28;20166;-76
2023/03/22 06:19:26;;;;;;;14.43;11.15;;;12.30;67.40;;;;;;5099996;28;20035;-77
2023/03/22 06:22:12;;;;;;;13.00;10.02;;;12.30;67.30;;;;;;5103474;28;20028;-75
2023/03/22 06:24:39;;;;;;;14.57;10.68;;;12.40;67.40;;;;;;5101524;28;20346;-74
2023/03/22 06:27:05;;;;;;;12.68;10.13;;;12.40;67.20;;;;;;5103403;28;20118;-77
2023/03/22 06:29:32;;;;;;;13.13;10.57;;;12.40;67.10;;;;;;5085709;28;20076;-76
2023/03/22 06:31:58;;;;;;;12.60;10.13;;;12.40;67.00;;;;;;5087532;28;20542;-75
2023/03/22 06:34:25;;;;;;;11.60;10.07;;;12.50;67.00;;;;;;5100120;28;20048;-78
2023/03/22 06:36:52;;;;;;;14.27;10.57;;;12.50;66.90;;;;;;5084329;28;20028;-75
2023/03/22 06:39:21;;;;;;;12.57;10.18;;;12.50;66.80;;;;;;5065484;28;20482;-73
2023/03/22 06:41:47;;;;;;;11.63;9.63;;;12.60;66.80;;;;;;5084249;28;20031;-74
2023/03/22 06:44:13;;;;;;;12.48;10.00;;;12.60;66.70;;;;;;5078086;28;20115;-76
2023/03/22 06:46:39;;;;;;;12.68;10.00;;;12.60;66.60;;;;;;5095828;28;20480;-78
2023/03/22 06:49:05;;;;;;;11.98;9.90;;;12.70;66.60;;;;;;5093046;28;20020;-79
2023/03/22 06:51:31;;;;;;;11.20;9.40;;;12.70;66.50;;;;;;5062358;28;20085;-78
2023/03/22 06:53:57;;;;;;;11.88;9.60;;;12.80;66.50;;;;;;5070812;28;20032;-75
2023/03/22 06:56:23;;;;;;;11.45;9.32;;;12.80;66.40;;;;;;5095462;28;20504;-77
2023/03/22 06:58:50;;;;;;;10.82;9.52;;;12.90;66.30;;;;;;5095300;28;20063;-77
2023/03/22 07:01:17;;;;;;;10.13;8.50;;;12.90;66.10;;;;;;5089691;28;20111;-77
2023/03/22 07:03:43;;;;;;;10.95;8.73;;;13.00;66.10;;;;;;5067061;28;20028;-79
2023/03/22 07:06:11;;;;;;;11.90;9.75;;;13.00;65.90;;;;;;5057749;28;20044;-80
2023/03/22 07:08:37;;;;;;;12.90;9.65;;;13.10;65.90;;;;;;5056818;28;20056;-78
2023/03/22 07:11:04;;;;;;;11.32;8.93;;;13.20;65.80;;;;;;5075269;28;20032;-80
2023/03/22 07:13:29;;;;;;;11.48;9.35;;;13.20;65.60;;;;;;5057456;28;20033;-80
2023/03/22 07:15:56;;;;;;;11.90;9.20;;;13.30;65.60;;;;;;5064924;28;20042;-88
2023/03/22 07:18:22;;;;;;;10.85;8.93;;;13.30;65.50;;;;;;5084618;28;20025;-79
2023/03/22 07:20:48;;;;;;;9.55;8.25;;;13.30;65.40;;;;;;5074453;28;20035;-77
2023/03/22 07:23:15;;;;;;;11.27;9.15;;;13.40;65.90;;;;;;5069122;28;20367;-78
2023/03/22 07:25:41;;;;;;;10.90;8.40;;;13.50;65.10;;;;;;5050466;28;20028;-76
2023/03/22 07:28:09;;;;;;;11.98;9.35;;;13.50;65.00;;;;;;5089107;28;20089;-78
2023/03/22 07:30:36;;;;;;;11.13;9.20;;;13.50;64.90;;;;;;5069529;28;20116;-76
2023/03/22 07:33:02;;;;;;;11.55;8.98;;;13.60;64.80;;;;;;5062194;28;20364;-78
2023/03/22 07:35:28;;;;;;;11.38;8.85;;;13.70;64.70;;;;;;5083105;28;20087;-89
2023/03/22 07:37:54;;;;;;;9.85;8.45;;;13.70;65.20;;;;;;5067116;28;20027;-85
2023/03/22 07:40:20;;;;;;;11.35;9.10;;;13.70;64.50;;;;;;5065887;28;20033;-85
2023/03/22 07:42:50;;;;;;;11.80;9.63;;;13.80;64.40;;;;;;5060376;28;20029;-80
2023/03/22 07:45:17;;;;;;;10.70;8.88;;;13.80;64.30;;;;;;5076179;28;20119;-84
2023/03/22 07:47:43;;;;;;;11.77;9.63;;;13.90;64.30;;;;;;5095775;28;20462;-83
2023/03/22 07:50:13;;;;;;;10.25;8.65;;;13.90;64.20;;;;;;5085741;28;20033;-78
2023/03/22 07:52:43;;;;;;;11.45;8.65;;;13.90;64.10;;;;;;5082081;28;20726;-82
2023/03/22 07:55:11;;;;;;;11.25;8.88;;;14.00;64.00;;;;;;5074505;28;20452;-84
2023/03/22 07:57:37;;;;;;;12.15;9.55;;;14.00;64.00;;;;;;5067055;28;20749;-80
2023/03/22 08:00:06;;;;;;;11.13;8.45;;;14.00;63.80;;;;;;5075125;28;20047;-83
2023/03/22 08:02:32;;;;;;;10.70;8.88;;;14.10;63.80;;;;;;5089926;28;20517;-85
2023/03/22 08:04:57;;;;;;;11.27;9.38;;;14.10;63.70;;;;;;5090259;28;20112;-85
2023/03/22 08:07:26;;;;;;;11.18;8.95;;;14.10;63.60;;;;;;5073286;28;20705;-86
2023/03/22 08:09:52;;;;;;;11.50;9.23;;;14.10;63.50;;;;;;5074211;28;20025;-86
2023/03/22 08:12:18;;;;;;;12.02;10.25;;;14.20;63.50;;;;;;5074619;28;20024;-87
2023/03/22 08:14:49;;;;;;;10.57;9.48;;;14.20;63.50;;;;;;5056343;28;20024;-85
2023/03/22 08:17:17;;;;;;;11.77;9.80;;;14.20;63.40;;;;;;5056689;28;20021;-86
2023/03/22 08:19:42;;;;;;;11.20;9.05;;;14.30;63.40;;;;;;5073656;28;20046;-85
2023/03/22 08:22:08;;;;;;;11.98;9.82;;;14.30;63.30;;;;;;5073009;28;20103;-86
2023/03/22 08:24:34;;;;;;;12.10;10.15;;;14.30;63.20;;;;;;5055908;28;20025;-85
2023/03/22 08:27:00;;;;;;;12.20;9.68;;;14.40;63.10;;;;;;5073993;28;20046;-85
2023/03/22 08:29:26;;;;;;;10.20;8.68;;;14.40;62.90;;;;;;5075439;28;20025;-85
2023/03/22 08:31:52;;;;;;;12.52;9.60;;;14.50;62.90;;;;;;5075007;28;20060;-85
2023/03/22 08:34:17;;;;;;;12.60;9.43;;;14.50;62.80;;;;;;5056041;28;20073;-85
2023/03/22 08:36:43;;;;;;;12.13;9.82;;;14.60;63.20;;;;;;5073709;28;20029;-85
2023/03/22 08:39:09;;;;;;;13.73;10.27;;;14.60;62.50;;;;;;5056186;28;20463;-87
2023/03/22 08:41:34;;;;;;;12.52;9.98;;;14.70;62.50;;;;;;5075394;28;20029;-86
2023/03/22 08:44:00;;;;;;;13.43;10.45;;;14.70;62.30;;;;;;5074201;28;20027;-86
2023/03/22 08:46:26;;;;;;;11.77;10.05;;;14.80;62.20;;;;;;5074014;28;20463;-85
2023/03/22 08:48:52;;;;;;;13.38;10.10;;;14.70;62.10;;;;;;5073762;28;20467;-85
2023/03/22 08:51:20;;;;;;;10.77;8.98;;;14.80;62.00;;;;;;5055222;28;20035;-86
2023/03/22 08:53:46;;;;;;;14.88;10.40;;;14.80;62.10;;;;;;5073747;28;20032;-85
2023/03/22 08:56:15;;;;;;;11.40;9.13;;;14.80;62.00;;;;;;5073328;28;20032;-86
2023/03/22 08:58:45;;;;;;;12.88;10.23;;;14.80;61.90;;;;;;5055618;28;20029;-84
2023/03/22 09:01:15;;;;;;;13.00;10.00;;;14.90;61.90;;;;;;5073409;28;20024;-84
2023/03/22 09:03:41;;;;;;;12.27;10.15;;;14.90;61.90;;;;;;5055519;28;20119;-85
2023/03/22 09:06:08;;;;;;;11.57;9.95;;;14.90;61.80;;;;;;5074056;28;20029;-85
2023/03/22 09:08:33;;;;;;;13.13;10.23;;;14.90;61.70;;;;;;5073454;28;20033;-85
2023/03/22 09:10:59;;;;;;;11.23;9.43;;;14.90;61.70;;;;;;5055801;28;20123;-86
2023/03/22 09:13:25;;;;;;;12.65;10.38;;;15.00;61.70;;;;;;5073227;28;20131;-86
2023/03/22 09:15:51;;;;;;;12.75;9.95;;;15.00;61.70;;;;;;5073375;28;20036;-86
2023/03/22 09:18:17;;;;;;;11.95;10.13;;;15.10;61.70;;;;;;5073237;28;20027;-86
2023/03/22 09:20:44;;;;;;;11.38;9.55;;;15.10;61.60;;;;;;5072489;28;20028;-86
2023/03/22 09:23:10;;;;;;;11.35;9.63;;;15.20;61.60;;;;;;5072796;28;20075;-85
2023/03/22 09:25:36;;;;;;;13.55;11.10;;;15.20;61.40;;;;;;5072885;28;20038;-86
2023/03/22 09:28:02;;;;;;;12.15;10.38;;;15.20;61.40;;;;;;5073145;28;20410;-86
2023/03/22 09:30:28;;;;;;;12.27;9.95;;;15.30;61.40;;;;;;5055204;28;20024;-88
2023/03/22 09:32:54;;;;;;;14.30;11.38;;;15.30;61.20;;;;;;5054534;28;20355;-86
2023/03/22 09:35:19;;;;;;;12.27;10.18;;;15.30;61.20;;;;;;5054829;28;20056;-86
2023/03/22 09:37:46;;;;;;;14.77;11.40;;;15.40;61.20;;;;;;5072993;28;20474;-84
2023/03/22 09:40:12;;;;;;;12.00;10.18;;;15.30;61.20;;;;;;5072749;28;20154;-86
2023/03/22 09:42:48;;;;;;;12.77;10.13;;;15.40;61.20;;;;;;5072708;28;20040;-87
2023/03/22 09:45:29;;;;;;;12.38;10.27;;;15.40;61.10;;;;;;5072661;28;20035;-85
2023/03/22 09:47:56;;;;;;;11.85;10.30;;;15.40;61.10;;;;;;5056014;28;20039;-86
2023/03/22 09:50:38;;;;;;;11.88;9.63;;;15.40;61.00;;;;;;5076875;28;20035;-86
2023/03/22 09:53:08;;;;;;;12.07;10.15;;;15.40;61.00;;;;;;5055562;28;20032;-86
2023/03/22 09:55:41;;;;;;;13.70;10.35;;;15.50;61.00;;;;;;5055027;28;20056;-87
2023/03/22 09:58:09;;;;;;;13.93;10.45;;;15.50;60.90;;;;;;5054933;28;20025;-86
2023/03/22 10:01:07;;;;;;;12.88;9.07;;;15.60;60.90;;;;;;5072720;28;20021;-86
2023/03/22 10:03:56;;;;;;;12.38;10.05;;;15.60;60.80;;;;;;5021715;28;20055;-87
2023/03/22 10:06:23;;;;;;;11.50;8.70;;;15.60;60.70;;;;;;5054837;28;20044;-87
2023/03/22 10:09:47;;;;;;;11.43;9.45;;;15.60;60.70;;;;;;5054678;28;20028;-86
2023/03/22 10:12:17;;;;;;;11.77;9.88;;;15.50;60.60;;;;;;4956142;28;20023;-86
2023/03/22 10:15:10;;;;;;;12.32;9.65;;;15.50;60.70;;;;;;4955078;28;20041;-85
2023/03/22 10:17:38;;;;;;;11.32;9.23;;;15.50;60.70;;;;;;5031038;28;20043;-85
2023/03/22 10:20:08;;;;;;;11.30;9.43;;;15.50;60.70;;;;;;5054752;28;20025;-87
2023/03/22 10:22:39;;;;;;;11.77;9.57;;;15.50;60.70;;;;;;5072407;28;20024;-87
2023/03/22 10:25:08;;;;;;;11.80;9.95;;;15.50;60.70;;;;;;5038401;28;20028;-87
2023/03/22 10:27:36;;;;;;;10.30;8.52;;;15.40;60.70;;;;;;5072433;28;20039;-87
2023/03/22 10:30:22;;;;;;;11.15;9.07;;;15.40;60.70;;;;;;5072963;28;20044;-87
2023/03/22 10:33:01;;;;;;;11.38;9.32;;;15.40;60.60;;;;;;5072274;28;20036;-85
2023/03/22 10:35:27;;;;;;;10.95;8.73;;;15.40;60.70;;;;;;5088095;28;20448;-85
2023/03/22 10:37:56;;;;;;;10.68;8.70;;;15.40;60.70;;;;;;5092573;28;20028;-85
2023/03/22 10:40:29;;;;;;;11.40;8.68;;;15.40;60.70;;;;;;5092553;28;20470;-86
2023/03/22 10:43:34;;;;;;;10.50;8.32;;;15.40;60.60;;;;;;5092678;28;20527;-85
2023/03/22 10:46:04;;;;;;;8.95;7.65;;;15.40;60.50;;;;;;5062659;28;20401;-86
2023/03/22 10:48:40;;;;;;;10.25;8.73;;;15.40;60.60;;;;;;5074361;28;20051;-85
2023/03/22 10:51:08;;;;;;;10.32;8.07;;;15.40;60.50;;;;;;5074099;28;20374;-87
2023/03/22 10:53:39;;;;;;;9.88;7.75;;;15.50;60.50;;;;;;5074239;28;20470;-86
2023/03/22 10:56:12;;;;;;;7.85;6.53;;;15.50;60.50;;;;;;5092227;28;20051;-86
2023/03/22 10:58:38;;;;;;;10.05;8.00;;;15.40;60.40;;;;;;5092261;28;20374;-85
2023/03/22 11:01:10;;;;;;;9.88;8.43;;;15.40;60.40;;;;;;5074733;28;20061;-86
2023/03/22 11:03:47;;;;;;;9.30;8.18;;;15.50;60.50;;;;;;5093225;28;20404;-87
2023/03/22 11:06:18;;;;;;;9.30;7.72;;;15.50;60.40;;;;;;5092866;28;20039;-86
2023/03/22 11:08:45;;;;;;;9.68;7.78;;;15.60;60.40;;;;;;5074275;28;20030;-87
2023/03/22 11:11:24;;;;;;;8.80;7.30;;;15.60;60.90;;;;;;5092326;28;20028;-87
2023/03/22 11:14:07;;;;;;;8.82;7.25;;;15.50;60.20;;;;;;5076142;28;20031;-87
2023/03/22 11:16:43;;;;;;;9.25;7.65;;;15.60;60.20;;;;;;5096088;28;20039;-85
2023/03/22 11:19:23;;;;;;;8.30;6.95;;;15.60;60.10;;;;;;5078470;28;20028;-85
2023/03/22 11:21:51;;;;;;;8.90;7.22;;;15.60;60.10;;;;;;5080063;28;20024;-87
2023/03/22 11:24:17;;;;;;;8.95;7.65;;;15.70;60.10;;;;;;5077737;28;20466;-87
2023/03/22 11:27:15;;;;;;;9.07;7.40;;;15.70;60.00;;;;;;5095973;28;20036;-87
2023/03/22 11:29:45;;;;;;;8.43;7.03;;;15.70;59.90;;;;;;5096119;28;20028;-86
2023/03/22 11:32:31;;;;;;;8.52;7.40;;;15.70;59.90;;;;;;5095773;28;20024;-87
2023/03/22 11:35:14;;;;;;;8.90;7.78;;;15.70;59.70;;;;;;5079561;28;20075;-85
2023/03/22 11:37:49;;;;;;;8.98;7.55;;;15.80;59.70;;;;;;5082691;28;20040;-86
2023/03/22 11:40:26;;;;;;;9.38;7.50;;;15.70;59.70;;;;;;5078362;28;20478;-84
2023/03/22 11:43:12;;;;;;;9.45;8.10;;;15.70;59.60;;;;;;5077569;28;20115;-86
2023/03/22 11:45:41;;;;;;;9.07;7.72;;;15.70;59.70;;;;;;5077380;28;20220;-85
2023/03/22 11:48:14;;;;;;;9.63;7.45;;;15.70;59.70;;;;;;5077265;28;20051;-86
2023/03/22 11:50:42;;;;;;;8.98;8.02;;;15.70;60.20;;;;;;5094938;28;20028;-86
2023/03/22 11:53:16;;;;;;;9.32;7.45;;;15.70;59.70;;;;;;5077274;28;20024;-86
2023/03/22 11:55:43;;;;;;;8.63;7.47;;;15.70;59.70;;;;;;5095415;28;20043;-87
2023/03/22 11:58:38;;;;;;;9.15;8.10;;;15.60;59.60;;;;;;5095573;28;20063;-87
2023/03/22 12:01:04;;;;;;;9.10;7.88;;;15.70;59.60;;;;;;5077460;28;20116;-86
2023/03/22 12:03:35;;;;;;;10.30;8.43;;;15.70;59.60;;;;;;5076780;28;20440;-87
2023/03/22 12:06:04;;;;;;;9.13;7.95;;;15.60;59.50;;;;;;5094958;28;20069;-86
2023/03/22 12:08:36;;;;;;;9.57;8.25;;;15.70;59.60;;;;;;5076581;28;20393;-87
2023/03/22 12:11:06;;;;;;;10.25;8.85;;;15.70;59.50;;;;;;5094787;28;20466;-87
2023/03/22 12:13:43;;;;;;;8.88;7.93;;;15.70;59.40;;;;;;5076629;28;20024;-86
2023/03/22 12:16:13;;;;;;;11.07;8.85;;;15.80;59.40;;;;;;5059904;28;20031;-87
2023/03/22 12:18:54;;;;;;;10.20;8.70;;;15.80;59.40;;;;;;5094181;28;20028;-86
2023/03/22 12:21:20;;;;;;;10.55;9.00;;;15.80;59.30;;;;;;5094973;28;20420;-86
2023/03/22 12:23:46;;;;;;;11.50;8.93;;;15.80;59.30;;;;;;5075895;28;20032;-86
2023/03/22 12:26:19;;;;;;;10.95;8.52;;;15.80;59.30;;;;;;5094813;28;20074;-87
2023/03/22 12:29:13;;;;;;;10.95;8.45;;;15.80;59.20;;;;;;5094097;28;20054;-86
2023/03/22 12:31:43;;;;;;;9.88;8.63;;;15.80;59.10;;;;;;5076393;28;20598;-86
2023/03/22 12:34:15;;;;;;;10.07;8.82;;;15.90;59.20;;;;;;5094479;28;20078;-87
2023/03/22 12:36:52;;;;;;;10.23;8.77;;;15.90;59.10;;;;;;5094333;28;20113;-88
2023/03/22 12:39:41;;;;;;;9.82;8.73;;;15.90;59.10;;;;;;5094192;28;20047;-86
2023/03/22 12:42:22;;;;;;;11.07;9.57;;;15.90;58.90;;;;;;5046103;28;20565;-87
2023/03/22 12:44:50;;;;;;;10.35;8.35;;;16.00;59.00;;;;;;5093989;28;20024;-87